Chapmansboro, Tennessee
Current Conditions -  °F | °C
As of 3:52 PM on Saturday 25 Oct 2014 (Local Time) from KCKV Reporting Station
Few Clouds Few Clouds  
Wind Chill: 78°   Ceiling: Unl
Heat Index: 80°   Visibility: 10mi
Dew Point: 62°   Wind: 10mph
Humidity: 58%   Direction: 290°WNW
Pressure: 30"   Gusts: NA
Location:  36.37°N, 87.14°W
Report Text: KCKV 252052Z AUTO 29009KT 10SM FEW038 26/17 A3000 RMK AO2 SLP155 T02560167 56010
Loading
Personal Weather Stations






























Interactive Weather Map
Tropical Storm Tracking
New forecast layout! Learn more

10-Day Weather Forecast

Advertisements
Track Severe Weather on mobile